sensor_id;sensor_type;location;lat;lon;timestamp;pressure;altitude;pressure_sealevel;temperature;humidity
596;BME280;19946;49.306;11.350;2023-10-13T00:00:28;96501.25;;;13.55;100.00
596;BME280;19946;49.306;11.350;2023-10-13T00:03:35;96508.97;;;13.64;100.00
596;BME280;19946;49.306;11.350;2023-10-13T00:06:37;96511.75;;;13.63;100.00
596;BME280;19946;49.306;11.350;2023-10-13T00:09:37;96526.34;;;13.73;100.00
596;BME280;19946;49.306;11.350;2023-10-13T00:12:38;96521.13;;;13.73;100.00
596;BME280;19946;49.306;11.350;2023-10-13T00:15:46;96513.16;;;13.75;100.00
596;BME280;19946;49.306;11.350;2023-10-13T00:18:57;96505.94;;;13.69;100.00
596;BME280;19946;49.306;11.350;2023-10-13T00:21:57;96513.09;;;13.67;100.00
596;BME280;19946;49.306;11.350;2023-10-13T00:25:09;96511.59;;;13.64;100.00
596;BME280;19946;49.306;11.350;2023-10-13T00:28:19;96490.34;;;13.51;100.00
596;BME280;19946;49.306;11.350;2023-10-13T00:31:26;96508.03;;;13.65;100.00
596;BME280;19946;49.306;11.350;2023-10-13T00:34:33;96509.66;;;13.66;100.00
596;BME280;19946;49.306;11.350;2023-10-13T00:37:37;96502.13;;;13.63;100.00
596;BME280;19946;49.306;11.350;2023-10-13T00:40:47;96494.56;;;13.70;100.00
596;BME280;19946;49.306;11.350;2023-10-13T00:43:54;96490.25;;;13.61;100.00
596;BME280;19946;49.306;11.350;2023-10-13T00:47:10;96454.25;;;13.38;100.00
596;BME280;19946;49.306;11.350;2023-10-13T00:50:17;96459.41;;;13.48;100.00
596;BME280;19946;49.306;11.350;2023-10-13T00:53:18;96481.09;;;13.57;100.00
596;BME280;19946;49.306;11.350;2023-10-13T00:56:24;96479.94;;;13.51;100.00
596;BME280;19946;49.306;11.350;2023-10-13T00:59:27;96465.78;;;13.36;100.00
596;BME280;19946;49.306;11.350;2023-10-13T01:02:27;96480.63;;;13.43;100.00
596;BME280;19946;49.306;11.350;2023-10-13T01:05:41;96475.75;;;13.40;100.00
596;BME280;19946;49.306;11.350;2023-10-13T01:08:45;96457.88;;;13.28;100.00
596;BME280;19946;49.306;11.350;2023-10-13T01:11:47;96477.13;;;13.35;100.00
596;BME280;19946;49.306;11.350;2023-10-13T01:14:56;96485.22;;;13.32;100.00
596;BME280;19946;49.306;11.350;2023-10-13T01:18:07;96485.47;;;13.38;100.00
596;BME280;19946;49.306;11.350;2023-10-13T01:21:12;96484.38;;;13.41;100.00
596;BME280;19946;49.306;11.350;2023-10-13T01:24:15;96479.97;;;13.41;100.00
596;BME280;19946;49.306;11.350;2023-10-13T01:27:21;96488.59;;;13.42;100.00
596;BME280;19946;49.306;11.350;2023-10-13T01:30:25;96485.41;;;13.48;100.00
596;BME280;19946;49.306;11.350;2023-10-13T01:33:26;96478.03;;;13.43;100.00
596;BME280;19946;49.306;11.350;2023-10-13T01:36:28;96469.13;;;13.46;100.00
596;BME280;19946;49.306;11.350;2023-10-13T01:39:35;96466.00;;;13.42;100.00
596;BME280;19946;49.306;11.350;2023-10-13T01:42:35;96462.28;;;13.45;100.00
596;BME280;19946;49.306;11.350;2023-10-13T01:45:37;96466.00;;;13.42;100.00
596;BME280;19946;49.306;11.350;2023-10-13T01:48:46;96456.34;;;13.35;100.00
596;BME280;19946;49.306;11.350;2023-10-13T01:51:46;96463.31;;;13.34;100.00
596;BME280;19946;49.306;11.350;2023-10-13T01:54:48;96436.63;;;13.14;100.00
596;BME280;19946;49.306;11.350;2023-10-13T01:57:50;96436.19;;;13.09;100.00
596;BME280;19946;49.306;11.350;2023-10-13T02:00:50;96473.28;;;13.39;100.00
596;BME280;19946;49.306;11.350;2023-10-13T02:03:50;96472.97;;;13.42;100.00
596;BME280;19946;49.306;11.350;2023-10-13T02:07:01;96463.56;;;13.41;100.00
596;BME280;19946;49.306;11.350;2023-10-13T02:10:01;96466.53;;;13.46;100.00
596;BME280;19946;49.306;11.350;2023-10-13T02:13:13;96440.38;;;13.30;100.00
596;BME280;19946;49.306;11.350;2023-10-13T02:16:17;96467.06;;;13.49;100.00
596;BME280;19946;49.306;11.350;2023-10-13T02:19:22;96464.47;;;13.49;100.00
596;BME280;19946;49.306;11.350;2023-10-13T02:22:27;96463.50;;;13.50;100.00
596;BME280;19946;49.306;11.350;2023-10-13T02:25:29;96459.13;;;13.51;100.00
596;BME280;19946;49.306;11.350;2023-10-13T02:28:36;96407.94;;;13.24;100.00
596;BME280;19946;49.306;11.350;2023-10-13T02:31:38;96345.63;;;12.87;100.00
596;BME280;19946;49.306;11.350;2023-10-13T02:34:38;96448.19;;;13.47;100.00
596;BME280;19946;49.306;11.350;2023-10-13T02:37:43;96457.09;;;13.45;100.00
596;BME280;19946;49.306;11.350;2023-10-13T02:40:44;96460.50;;;13.45;100.00
596;BME280;19946;49.306;11.350;2023-10-13T02:43:44;96451.06;;;13.44;100.00
596;BME280;19946;49.306;11.350;2023-10-13T02:46:45;96421.56;;;13.36;100.00
596;BME280;19946;49.306;11.350;2023-10-13T02:49:50;96434.78;;;13.42;100.00
596;BME280;19946;49.306;11.350;2023-10-13T02:52:50;96443.41;;;13.43;100.00
596;BME280;19946;49.306;11.350;2023-10-13T02:55:53;96443.25;;;13.44;100.00
596;BME280;19946;49.306;11.350;2023-10-13T02:58:55;96444.06;;;13.45;100.00
596;BME280;19946;49.306;11.350;2023-10-13T03:02:05;96438.88;;;13.45;100.00
596;BME280;19946;49.306;11.350;2023-10-13T03:05:18;96444.63;;;13.48;100.00
596;BME280;19946;49.306;11.350;2023-10-13T03:08:18;96440.91;;;13.51;100.00
596;BME280;19946;49.306;11.350;2023-10-13T03:11:26;96423.50;;;13.51;100.00
596;BME280;19946;49.306;11.350;2023-10-13T03:14:32;96428.94;;;13.58;100.00
596;BME280;19946;49.306;11.350;2023-10-13T03:17:33;96416.50;;;13.52;100.00
596;BME280;19946;49.306;11.350;2023-10-13T03:20:33;96428.53;;;13.53;100.00
596;BME280;19946;49.306;11.350;2023-10-13T03:23:33;96428.19;;;13.48;100.00
596;BME280;19946;49.306;11.350;2023-10-13T03:26:47;96423.66;;;13.50;100.00
596;BME280;19946;49.306;11.350;2023-10-13T03:29:52;96422.44;;;13.44;100.00
596;BME280;19946;49.306;11.350;2023-10-13T03:32:56;96423.28;;;13.45;100.00
596;BME280;19946;49.306;11.350;2023-10-13T03:35:56;96424.03;;;13.37;100.00
596;BME280;19946;49.306;11.350;2023-10-13T03:39:05;96423.34;;;13.35;100.00
596;BME280;19946;49.306;11.350;2023-10-13T03:42:07;96413.53;;;13.29;100.00
596;BME280;19946;49.306;11.350;2023-10-13T03:45:11;96414.94;;;13.24;100.00
596;BME280;19946;49.306;11.350;2023-10-13T03:48:14;96407.81;;;13.26;100.00
596;BME280;19946;49.306;11.350;2023-10-13T03:51:26;96385.19;;;13.08;100.00
596;BME280;19946;49.306;11.350;2023-10-13T03:54:31;96391.22;;;12.99;100.00
596;BME280;19946;49.306;11.350;2023-10-13T03:57:34;96404.00;;;12.93;100.00
596;BME280;19946;49.306;11.350;2023-10-13T04:00:38;96408.09;;;12.95;100.00
596;BME280;19946;49.306;11.350;2023-10-13T04:03:38;96402.66;;;12.89;100.00
596;BME280;19946;49.306;11.350;2023-10-13T04:06:42;96404.88;;;12.84;100.00
596;BME280;19946;49.306;11.350;2023-10-13T04:09:45;96410.94;;;12.74;100.00
596;BME280;19946;49.306;11.350;2023-10-13T04:12:48;96397.19;;;12.64;100.00
596;BME280;19946;49.306;11.350;2023-10-13T04:16:08;96388.06;;;12.51;100.00
596;BME280;19946;49.306;11.350;2023-10-13T04:19:23;96416.31;;;12.63;100.00
596;BME280;19946;49.306;11.350;2023-10-13T04:22:24;96401.31;;;12.57;100.00
596;BME280;19946;49.306;11.350;2023-10-13T04:25:44;96373.06;;;12.44;100.00
596;BME280;19946;49.306;11.350;2023-10-13T04:28:44;96395.41;;;12.55;100.00
596;BME280;19946;49.306;11.350;2023-10-13T04:31:56;96385.47;;;12.51;100.00
596;BME280;19946;49.306;11.350;2023-10-13T04:35:00;96392.19;;;12.53;100.00
596;BME280;19946;49.306;11.350;2023-10-13T04:38:18;96371.63;;;12.32;100.00
596;BME280;19946;49.306;11.350;2023-10-13T04:41:20;96370.63;;;12.33;100.00
596;BME280;19946;49.306;11.350;2023-10-13T04:44:24;96390.31;;;12.36;100.00
596;BME280;19946;49.306;11.350;2023-10-13T04:47:44;96384.97;;;12.37;100.00
596;BME280;19946;49.306;11.350;2023-10-13T04:51:01;96385.38;;;12.42;100.00
596;BME280;19946;49.306;11.350;2023-10-13T04:54:19;96363.44;;;12.27;100.00
596;BME280;19946;49.306;11.350;2023-10-13T04:57:26;96357.28;;;12.28;100.00
596;BME280;19946;49.306;11.350;2023-10-13T05:00:47;96382.19;;;12.49;100.00
596;BME280;19946;49.306;11.350;2023-10-13T05:04:16;96375.78;;;12.53;100.00
596;BME280;19946;49.306;11.350;2023-10-13T05:07:31;96385.19;;;12.54;100.00
596;BME280;19946;49.306;11.350;2023-10-13T05:10:50;96375.09;;;12.51;100.00
596;BME280;19946;49.306;11.350;2023-10-13T05:14:09;96372.63;;;12.49;100.00
596;BME280;19946;49.306;11.350;2023-10-13T05:17:29;96365.03;;;12.38;100.00
596;BME280;19946;49.306;11.350;2023-10-13T05:20:48;96386.81;;;12.55;100.00
596;BME280;19946;49.306;11.350;2023-10-13T05:24:07;96371.28;;;12.45;100.00
596;BME280;19946;49.306;11.350;2023-10-13T05:27:26;96391.72;;;12.58;100.00
596;BME280;19946;49.306;11.350;2023-10-13T05:30:45;96374.22;;;12.60;100.00
596;BME280;19946;49.306;11.350;2023-10-13T05:34:04;96391.41;;;12.70;100.00
596;BME280;19946;49.306;11.350;2023-10-13T05:37:23;96364.44;;;12.54;100.00
596;BME280;19946;49.306;11.350;2023-10-13T05:41:02;96391.22;;;12.54;100.00
596;BME280;19946;49.306;11.350;2023-10-13T05:44:22;96394.94;;;12.42;100.00
596;BME280;19946;49.306;11.350;2023-10-13T05:47:37;96360.88;;;12.18;100.00
596;BME280;19946;49.306;11.350;2023-10-13T05:50:43;96393.34;;;12.31;100.00
596;BME280;19946;49.306;11.350;2023-10-13T05:53:58;96393.91;;;12.25;100.00
596;BME280;19946;49.306;11.350;2023-10-13T05:57:13;96398.94;;;12.27;100.00
596;BME280;19946;49.306;11.350;2023-10-13T06:00:38;96394.00;;;12.33;100.00
596;BME280;19946;49.306;11.350;2023-10-13T06:03:57;96392.09;;;12.35;100.00
596;BME280;19946;49.306;11.350;2023-10-13T06:07:15;96400.28;;;12.40;100.00
596;BME280;19946;49.306;11.350;2023-10-13T06:10:35;96395.78;;;12.42;100.00
596;BME280;19946;49.306;11.350;2023-10-13T06:13:54;96385.94;;;12.36;100.00
596;BME280;19946;49.306;11.350;2023-10-13T06:17:13;96377.88;;;12.39;100.00
596;BME280;19946;49.306;11.350;2023-10-13T06:20:32;96397.78;;;12.49;100.00
596;BME280;19946;49.306;11.350;2023-10-13T06:23:56;96387.97;;;12.42;100.00
596;BME280;19946;49.306;11.350;2023-10-13T06:27:16;96404.97;;;12.64;100.00
596;BME280;19946;49.306;11.350;2023-10-13T06:30:34;96403.63;;;12.60;100.00
596;BME280;19946;49.306;11.350;2023-10-13T06:33:35;96405.78;;;12.65;100.00
596;BME280;19946;49.306;11.350;2023-10-13T06:36:35;96390.59;;;12.70;100.00
596;BME280;19946;49.306;11.350;2023-10-13T06:39:37;96407.03;;;12.88;100.00
596;BME280;19946;49.306;11.350;2023-10-13T06:42:38;96397.44;;;12.89;100.00
596;BME280;19946;49.306;11.350;2023-10-13T06:45:43;96401.22;;;13.04;100.00
596;BME280;19946;49.306;11.350;2023-10-13T06:48:50;96405.78;;;13.20;100.00
596;BME280;19946;49.306;11.350;2023-10-13T06:51:53;96392.56;;;13.31;100.00
596;BME280;19946;49.306;11.350;2023-10-13T06:54:54;96389.69;;;13.34;100.00
596;BME280;19946;49.306;11.350;2023-10-13T06:57:54;96401.22;;;13.49;100.00
596;BME280;19946;49.306;11.350;2023-10-13T07:01:00;96410.09;;;13.64;100.00
596;BME280;19946;49.306;11.350;2023-10-13T07:04:01;96408.75;;;13.78;100.00
596;BME280;19946;49.306;11.350;2023-10-13T07:07:03;96400.81;;;13.79;100.00
596;BME280;19946;49.306;11.350;2023-10-13T07:10:09;96398.88;;;13.81;100.00
596;BME280;19946;49.306;11.350;2023-10-13T07:13:11;96423.63;;;13.85;100.00
596;BME280;19946;49.306;11.350;2023-10-13T07:16:13;96394.94;;;13.77;100.00
596;BME280;19946;49.306;11.350;2023-10-13T07:19:13;96405.09;;;13.88;100.00
596;BME280;19946;49.306;11.350;2023-10-13T07:22:17;96389.28;;;13.82;100.00
596;BME280;19946;49.306;11.350;2023-10-13T07:25:21;96405.69;;;14.00;100.00
596;BME280;19946;49.306;11.350;2023-10-13T07:28:25;96391.66;;;13.93;100.00
596;BME280;19946;49.306;11.350;2023-10-13T07:31:25;96401.97;;;14.03;100.00
596;BME280;19946;49.306;11.350;2023-10-13T07:34:27;96393.56;;;14.17;100.00
596;BME280;19946;49.306;11.350;2023-10-13T07:37:31;96396.09;;;14.27;100.00
596;BME280;19946;49.306;11.350;2023-10-13T07:40:32;96397.03;;;14.43;100.00
596;BME280;19946;49.306;11.350;2023-10-13T07:43:36;96384.91;;;14.60;100.00
596;BME280;19946;49.306;11.350;2023-10-13T07:46:39;96391.97;;;14.76;100.00
596;BME280;19946;49.306;11.350;2023-10-13T07:49:40;96333.41;;;14.54;100.00
596;BME280;19946;49.306;11.350;2023-10-13T07:52:41;96394.38;;;15.03;100.00
596;BME280;19946;49.306;11.350;2023-10-13T07:55:58;96370.91;;;15.03;100.00
596;BME280;19946;49.306;11.350;2023-10-13T07:59:03;96365.84;;;15.10;100.00
596;BME280;19946;49.306;11.350;2023-10-13T08:02:09;96386.63;;;15.36;100.00
596;BME280;19946;49.306;11.350;2023-10-13T08:05:12;96387.59;;;15.43;100.00
596;BME280;19946;49.306;11.350;2023-10-13T08:08:15;96361.00;;;15.39;100.00
596;BME280;19946;49.306;11.350;2023-10-13T08:11:17;96385.03;;;15.59;100.00
596;BME280;19946;49.306;11.350;2023-10-13T08:14:23;96394.50;;;15.76;100.00
596;BME280;19946;49.306;11.350;2023-10-13T08:17:29;96383.72;;;15.95;100.00
596;BME280;19946;49.306;11.350;2023-10-13T08:20:31;96377.50;;;16.13;100.00
596;BME280;19946;49.306;11.350;2023-10-13T08:23:38;96353.50;;;16.17;100.00
596;BME280;19946;49.306;11.350;2023-10-13T08:26:53;96377.72;;;16.58;100.00
596;BME280;19946;49.306;11.350;2023-10-13T08:29:57;96357.50;;;16.91;100.00
596;BME280;19946;49.306;11.350;2023-10-13T08:32:58;96375.63;;;17.77;100.00
596;BME280;19946;49.306;11.350;2023-10-13T08:35:59;96366.94;;;18.29;100.00
596;BME280;19946;49.306;11.350;2023-10-13T08:39:18;96363.06;;;18.40;100.00
596;BME280;19946;49.306;11.350;2023-10-13T08:42:38;96382.06;;;18.42;100.00
596;BME280;19946;49.306;11.350;2023-10-13T08:45:42;96364.72;;;17.88;100.00
596;BME280;19946;49.306;11.350;2023-10-13T08:48:43;96355.66;;;17.76;100.00
596;BME280;19946;49.306;11.350;2023-10-13T08:51:47;96339.78;;;17.78;100.00
596;BME280;19946;49.306;11.350;2023-10-13T08:54:49;96372.41;;;18.28;100.00
596;BME280;19946;49.306;11.350;2023-10-13T08:58:03;96374.50;;;18.76;100.00
596;BME280;19946;49.306;11.350;2023-10-13T09:01:13;96383.13;;;19.42;100.00
596;BME280;19946;49.306;11.350;2023-10-13T09:04:31;96378.44;;;19.52;100.00
596;BME280;19946;49.306;11.350;2023-10-13T09:07:31;96346.53;;;19.19;100.00
596;BME280;19946;49.306;11.350;2023-10-13T09:10:35;96363.50;;;19.38;100.00
596;BME280;19946;49.306;11.350;2023-10-13T09:13:44;96369.16;;;19.35;100.00
596;BME280;19946;49.306;11.350;2023-10-13T09:16:44;96363.25;;;19.33;100.00
596;BME280;19946;49.306;11.350;2023-10-13T09:19:51;96367.09;;;19.16;100.00
596;BME280;19946;49.306;11.350;2023-10-13T09:22:58;96358.31;;;19.23;100.00
596;BME280;19946;49.306;11.350;2023-10-13T09:26:05;96318.63;;;19.33;100.00
596;BME280;19946;49.306;11.350;2023-10-13T09:29:19;96335.03;;;19.56;100.00
596;BME280;19946;49.306;11.350;2023-10-13T09:32:19;96342.66;;;19.51;100.00
596;BME280;19946;49.306;11.350;2023-10-13T09:35:21;96315.00;;;19.77;100.00
596;BME280;19946;49.306;11.350;2023-10-13T09:38:27;96362.03;;;20.49;100.00
596;BME280;19946;49.306;11.350;2023-10-13T09:41:29;96349.13;;;20.54;100.00
596;BME280;19946;49.306;11.350;2023-10-13T09:44:32;96322.88;;;20.04;100.00
596;BME280;19946;49.306;11.350;2023-10-13T09:47:33;96360.16;;;19.65;100.00
596;BME280;19946;49.306;11.350;2023-10-13T09:50:37;96352.00;;;19.39;100.00
596;BME280;19946;49.306;11.350;2023-10-13T09:53:47;96302.22;;;19.10;100.00
596;BME280;19946;49.306;11.350;2023-10-13T09:56:57;96316.50;;;19.22;100.00
596;BME280;19946;49.306;11.350;2023-10-13T10:00:20;96335.41;;;20.30;100.00
596;BME280;19946;49.306;11.350;2023-10-13T10:03:45;96322.59;;;20.55;100.00
596;BME280;19946;49.306;11.350;2023-10-13T10:06:58;96321.00;;;21.08;100.00
596;BME280;19946;49.306;11.350;2023-10-13T10:10:02;96332.44;;;21.35;100.00
596;BME280;19946;49.306;11.350;2023-10-13T10:13:13;96327.72;;;21.18;100.00
596;BME280;19946;49.306;11.350;2023-10-13T10:16:24;96326.47;;;21.13;100.00
596;BME280;19946;49.306;11.350;2023-10-13T10:19:30;96328.56;;;21.25;100.00
596;BME280;19946;49.306;11.350;2023-10-13T10:22:31;96323.31;;;21.31;100.00
596;BME280;19946;49.306;11.350;2023-10-13T10:25:36;96326.75;;;21.32;100.00
596;BME280;19946;49.306;11.350;2023-10-13T10:28:39;96324.34;;;21.30;100.00
596;BME280;19946;49.306;11.350;2023-10-13T10:31:41;96303.69;;;21.40;100.00
596;BME280;19946;49.306;11.350;2023-10-13T10:34:46;96318.31;;;21.82;100.00
596;BME280;19946;49.306;11.350;2023-10-13T10:37:47;96315.06;;;22.07;100.00
596;BME280;19946;49.306;11.350;2023-10-13T10:43:52;96296.72;;;22.51;100.00
596;BME280;19946;49.306;11.350;2023-10-13T10:46:53;96278.69;;;22.42;98.76
596;BME280;19946;49.306;11.350;2023-10-13T10:49:58;96299.78;;;22.48;89.50
596;BME280;19946;49.306;11.350;2023-10-13T10:53:04;96291.06;;;22.41;94.39
596;BME280;19946;49.306;11.350;2023-10-13T10:56:10;96279.50;;;22.29;89.10
596;BME280;19946;49.306;11.350;2023-10-13T10:59:20;96285.34;;;22.51;86.00
596;BME280;19946;49.306;11.350;2023-10-13T11:02:30;96276.69;;;22.24;90.59
596;BME280;19946;49.306;11.350;2023-10-13T11:05:43;96269.16;;;22.34;81.62
596;BME280;19946;49.306;11.350;2023-10-13T11:08:44;96273.31;;;22.62;66.82
596;BME280;19946;49.306;11.350;2023-10-13T11:11:50;96263.09;;;22.91;68.35
596;BME280;19946;49.306;11.350;2023-10-13T11:15:22;96224.44;;;22.59;65.13
596;BME280;19946;49.306;11.350;2023-10-13T11:18:32;96245.31;;;23.05;61.99
596;BME280;19946;49.306;11.350;2023-10-13T11:21:40;96245.63;;;23.22;61.67
596;BME280;19946;49.306;11.350;2023-10-13T11:24:42;96239.31;;;22.91;60.69
596;BME280;19946;49.306;11.350;2023-10-13T11:27:42;96236.09;;;22.89;58.56
596;BME280;19946;49.306;11.350;2023-10-13T11:30:48;96226.59;;;23.13;61.00
596;BME280;19946;49.306;11.350;2023-10-13T11:33:52;96226.38;;;23.40;52.90
596;BME280;19946;49.306;11.350;2023-10-13T11:36:56;96215.16;;;23.19;51.02
596;BME280;19946;49.306;11.350;2023-10-13T11:40:18;96169.03;;;23.47;49.51
596;BME280;19946;49.306;11.350;2023-10-13T11:43:40;96220.22;;;23.77;50.14
596;BME280;19946;49.306;11.350;2023-10-13T11:46:43;96211.25;;;23.78;48.64
596;BME280;19946;49.306;11.350;2023-10-13T11:49:44;96204.41;;;23.46;47.35
596;BME280;19946;49.306;11.350;2023-10-13T11:52:44;96169.09;;;23.83;48.67
596;BME280;19946;49.306;11.350;2023-10-13T11:55:44;96187.53;;;24.08;49.72
596;BME280;19946;49.306;11.350;2023-10-13T11:58:45;96182.69;;;23.87;47.87
596;BME280;19946;49.306;11.350;2023-10-13T12:01:49;96190.31;;;23.95;48.20
596;BME280;19946;49.306;11.350;2023-10-13T12:05:08;96178.22;;;24.06;46.55
596;BME280;19946;49.306;11.350;2023-10-13T12:08:12;96177.91;;;24.14;43.38
596;BME280;19946;49.306;11.350;2023-10-13T12:11:22;96173.22;;;24.16;44.61
596;BME280;19946;49.306;11.350;2023-10-13T12:14:31;96164.19;;;24.05;44.40
596;BME280;19946;49.306;11.350;2023-10-13T12:17:37;96163.38;;;24.23;45.62
596;BME280;19946;49.306;11.350;2023-10-13T12:20:39;96155.88;;;24.20;43.65
596;BME280;19946;49.306;11.350;2023-10-13T12:23:45;96153.66;;;24.53;45.39
596;BME280;19946;49.306;11.350;2023-10-13T12:26:45;96151.50;;;24.62;42.74
596;BME280;19946;49.306;11.350;2023-10-13T12:29:47;96161.75;;;24.40;42.88
596;BME280;19946;49.306;11.350;2023-10-13T12:32:51;96159.28;;;24.87;44.51
596;BME280;19946;49.306;11.350;2023-10-13T12:36:01;96151.94;;;24.59;43.29
596;BME280;19946;49.306;11.350;2023-10-13T12:39:27;96153.44;;;24.55;45.19
596;BME280;19946;49.306;11.350;2023-10-13T12:42:45;96140.63;;;24.52;45.35
596;BME280;19946;49.306;11.350;2023-10-13T12:46:04;96136.81;;;24.48;44.01
596;BME280;19946;49.306;11.350;2023-10-13T12:49:24;96122.56;;;24.49;44.42
596;BME280;19946;49.306;11.350;2023-10-13T12:52:42;96131.50;;;24.66;45.25
596;BME280;19946;49.306;11.350;2023-10-13T12:55:45;96133.53;;;24.64;44.04
596;BME280;19946;49.306;11.350;2023-10-13T12:58:46;96108.03;;;24.40;44.55
596;BME280;19946;49.306;11.350;2023-10-13T13:01:53;96118.38;;;24.71;46.38
596;BME280;19946;49.306;11.350;2023-10-13T13:04:56;96132.06;;;24.98;45.13
596;BME280;19946;49.306;11.350;2023-10-13T13:08:11;96124.91;;;24.98;44.09
596;BME280;19946;49.306;11.350;2023-10-13T13:11:19;96126.06;;;25.02;43.04
596;BME280;19946;49.306;11.350;2023-10-13T13:14:20;96116.72;;;25.00;42.58
596;BME280;19946;49.306;11.350;2023-10-13T13:17:21;96095.38;;;24.83;43.03
596;BME280;19946;49.306;11.350;2023-10-13T13:20:21;96060.56;;;24.26;40.59
596;BME280;19946;49.306;11.350;2023-10-13T13:23:29;96081.94;;;24.25;43.49
596;BME280;19946;49.306;11.350;2023-10-13T13:26:31;96107.81;;;24.05;41.76
596;BME280;19946;49.306;11.350;2023-10-13T13:29:31;96106.19;;;24.03;43.46
596;BME280;19946;49.306;11.350;2023-10-13T13:32:31;96086.25;;;23.89;42.85
596;BME280;19946;49.306;11.350;2023-10-13T13:35:32;96075.53;;;23.84;43.61
596;BME280;19946;49.306;11.350;2023-10-13T13:38:35;96092.91;;;23.92;43.22
596;BME280;19946;49.306;11.350;2023-10-13T13:41:35;96055.94;;;23.74;43.91
596;BME280;19946;49.306;11.350;2023-10-13T13:44:35;96049.09;;;23.84;42.60
596;BME280;19946;49.306;11.350;2023-10-13T13:47:38;96068.06;;;24.29;42.93
596;BME280;19946;49.306;11.350;2023-10-13T13:50:39;96056.28;;;24.55;41.65
596;BME280;19946;49.306;11.350;2023-10-13T13:53:41;96050.88;;;24.50;43.37
596;BME280;19946;49.306;11.350;2023-10-13T13:56:46;96032.09;;;24.40;43.92
596;BME280;19946;49.306;11.350;2023-10-13T13:59:46;96045.09;;;24.42;44.42
596;BME280;19946;49.306;11.350;2023-10-13T14:02:46;96049.94;;;24.56;43.97
596;BME280;19946;49.306;11.350;2023-10-13T14:05:47;96028.41;;;24.41;42.79
596;BME280;19946;49.306;11.350;2023-10-13T14:08:51;96035.38;;;24.65;42.90
596;BME280;19946;49.306;11.350;2023-10-13T14:11:55;95979.41;;;24.50;43.19
596;BME280;19946;49.306;11.350;2023-10-13T14:15:14;96027.31;;;24.84;44.89
596;BME280;19946;49.306;11.350;2023-10-13T14:18:23;96021.78;;;24.73;41.73
596;BME280;19946;49.306;11.350;2023-10-13T14:21:30;96013.91;;;24.55;43.04
596;BME280;19946;49.306;11.350;2023-10-13T14:24:34;96010.38;;;24.61;43.30
596;BME280;19946;49.306;11.350;2023-10-13T14:27:35;95983.09;;;24.49;44.02
596;BME280;19946;49.306;11.350;2023-10-13T14:30:36;96007.53;;;24.74;43.26
596;BME280;19946;49.306;11.350;2023-10-13T14:33:36;96001.06;;;24.70;41.68
596;BME280;19946;49.306;11.350;2023-10-13T14:36:37;96002.09;;;24.69;41.93
596;BME280;19946;49.306;11.350;2023-10-13T14:39:37;96006.91;;;24.61;41.71
596;BME280;19946;49.306;11.350;2023-10-13T14:42:38;95997.88;;;24.27;43.65
596;BME280;19946;49.306;11.350;2023-10-13T14:45:40;95994.72;;;24.18;44.69
596;BME280;19946;49.306;11.350;2023-10-13T14:48:41;95974.50;;;23.94;45.68
596;BME280;19946;49.306;11.350;2023-10-13T14:51:42;95992.31;;;23.87;46.01
596;BME280;19946;49.306;11.350;2023-10-13T14:54:42;95977.28;;;23.69;46.85
596;BME280;19946;49.306;11.350;2023-10-13T14:57:47;95931.88;;;23.24;47.44
596;BME280;19946;49.306;11.350;2023-10-13T15:00:48;95988.16;;;23.43;47.88
596;BME280;19946;49.306;11.350;2023-10-13T15:03:50;95979.44;;;23.24;49.17
596;BME280;19946;49.306;11.350;2023-10-13T15:06:50;95984.75;;;23.17;49.54
596;BME280;19946;49.306;11.350;2023-10-13T15:09:50;95970.16;;;23.15;50.06
596;BME280;19946;49.306;11.350;2023-10-13T15:12:51;95965.53;;;23.28;48.93
596;BME280;19946;49.306;11.350;2023-10-13T15:15:52;95955.06;;;23.22;48.89
596;BME280;19946;49.306;11.350;2023-10-13T15:18:52;95961.66;;;23.13;48.82
596;BME280;19946;49.306;11.350;2023-10-13T15:21:54;95967.75;;;23.13;48.88
596;BME280;19946;49.306;11.350;2023-10-13T15:24:54;95971.44;;;23.12;48.12
596;BME280;19946;49.306;11.350;2023-10-13T15:28:09;95963.00;;;23.04;48.56
596;BME280;19946;49.306;11.350;2023-10-13T15:31:13;95968.31;;;22.97;47.94
596;BME280;19946;49.306;11.350;2023-10-13T15:34:23;95962.66;;;22.93;49.31
596;BME280;19946;49.306;11.350;2023-10-13T15:37:23;95941.69;;;22.80;47.76
596;BME280;19946;49.306;11.350;2023-10-13T15:40:25;95947.72;;;22.87;48.85
596;BME280;19946;49.306;11.350;2023-10-13T15:43:27;95952.28;;;22.74;49.44
596;BME280;19946;49.306;11.350;2023-10-13T15:46:28;95898.22;;;22.15;50.80
596;BME280;19946;49.306;11.350;2023-10-13T15:49:30;95949.38;;;22.32;51.00
596;BME280;19946;49.306;11.350;2023-10-13T15:52:32;95944.22;;;22.19;51.50
596;BME280;19946;49.306;11.350;2023-10-13T15:55:36;95929.34;;;22.00;50.90
596;BME280;19946;49.306;11.350;2023-10-13T15:58:58;95937.06;;;21.95;52.38
596;BME280;19946;49.306;11.350;2023-10-13T16:01:58;95917.41;;;21.59;52.60
596;BME280;19946;49.306;11.350;2023-10-13T16:04:58;95905.59;;;21.30;53.49
596;BME280;19946;49.306;11.350;2023-10-13T16:08:01;95929.88;;;21.39;53.26
596;BME280;19946;49.306;11.350;2023-10-13T16:11:06;95931.50;;;21.33;53.77
596;BME280;19946;49.306;11.350;2023-10-13T16:14:13;95912.97;;;21.02;53.92
596;BME280;19946;49.306;11.350;2023-10-13T16:17:17;95928.34;;;21.05;53.96
596;BME280;19946;49.306;11.350;2023-10-13T16:20:21;95903.09;;;20.84;54.03
596;BME280;19946;49.306;11.350;2023-10-13T16:23:21;95930.84;;;20.80;54.71
596;BME280;19946;49.306;11.350;2023-10-13T16:26:22;95935.31;;;20.60;55.83
596;BME280;19946;49.306;11.350;2023-10-13T16:29:23;95938.41;;;20.44;56.15
596;BME280;19946;49.306;11.350;2023-10-13T16:32:23;95923.81;;;20.21;57.79
596;BME280;19946;49.306;11.350;2023-10-13T16:35:26;95928.22;;;19.88;60.51